Terminal Aerodrome Forecast
Issued by NWS

Home | Current Version | Previous Version | Text Only | Print | Product List | Glossary On
Versions: 1 2 3 4 5 6 7 8 9 10 11 12 13 14 15
128
FTUS46 KSTO 090008 AAB
TAFSAC
TAF AMD
KSAC 090008Z 0900/0924 VRB05KT 2SM -RA BR OVC010
      TEMPO 0900/0904 1SM -DZ BR OVC005
     FM090500 VRB03KT 1SM -DZ BR OVC003
      TEMPO 0912/0916 1/2SM -DZ FG OVC001
     FM092100 16006KT 2SM -RA BR OVC010=

USA.gov is the U.S. government's official web portal to all federal, state and local government web resources and services.